»·PEaware :: N739HH KAVX-KSAN

N739HH :: KAVX-KSAN

FLIGHT INFORMATION

Flight Status: Arrived
Operator: Privately registered:
United States
More flights under this callsign
Pilot: Drew L. (13237)
Aircraft: CESSNA 172 SKYHAWK
(C172)
More flights by this aircraft type
Origin: KAVX Catalina
United States
Destination: KSAN San Diego Intl-Lindbergh
United States
More flights between these airports :: More routes between these airports
Route: +SXC V208 OCN V23 MZB
File this flight plan on PilotEdge
Remarks: i7 Rating
Altitude:
(Current/Filed)
8,000ft
Speed:
(Current/Filed)
455kts
Departed: 16-Apr-18 02:33 PM
Arrived: 16-Apr-18 03:29 PM
Distance/Time
Traveled:
74nm/0:56
Distance/Time
To Go:
Arrived

Flight Plot

Page will automatically refresh every two minutes.


Map Options




Map Legend


Flown Route
Filed Route
Departure Airport
Arrival Airport
Navaid (VOR, NDB)
Fix

Horizontal Profiles

Position Reports

Time Latitude Longitude Heading Altitude Ground
Speed
16-Apr-18 14:19 33.404059 -118.415048 17 1606ft 0kts
16-Apr-18 14:20 33.404059 -118.415048 17 1606ft 0kts
16-Apr-18 14:21 33.404059 -118.415048 17 1606ft 0kts
16-Apr-18 14:22 33.404059 -118.415048 17 1606ft 0kts
16-Apr-18 14:23 33.404059 -118.415048 17 1606ft 0kts
16-Apr-18 14:24 33.404059 -118.415048 17 1606ft 0kts
16-Apr-18 14:25 33.404584 -118.415081 353 1606ft 11kts
16-Apr-18 14:26 33.407148 -118.411464 57 1606ft 0kts
16-Apr-18 14:27 33.407148 -118.411464 57 1606ft 0kts
16-Apr-18 14:28 33.407148 -118.411464 57 1606ft 0kts
16-Apr-18 14:29 33.407148 -118.411464 57 1606ft 0kts
16-Apr-18 14:30 33.407148 -118.411464 57 1606ft 0kts
16-Apr-18 14:31 33.407148 -118.411464 57 1606ft 0kts
16-Apr-18 14:32 33.404154 -118.417010 236 1883ft 48kts
16-Apr-18 14:33 33.396579 -118.431362 240 2787ft 58kts
16-Apr-18 14:34 33.377421 -118.424567 147 3575ft 105kts
16-Apr-18 14:35 33.371032 -118.387288 106 4352ft 116kts
16-Apr-18 14:36 33.366033 -118.348360 106 4972ft 130kts
16-Apr-18 14:37 33.359637 -118.300214 104 4976ft 154kts
16-Apr-18 14:38 33.352976 -118.249316 106 4974ft 155kts
16-Apr-18 14:39 33.346293 -118.198494 101 4981ft 154kts
16-Apr-18 14:40 33.339631 -118.148013 105 4978ft 151kts
16-Apr-18 14:41 33.333756 -118.103013 107 5594ft 135kts
16-Apr-18 14:42 33.327830 -118.058406 102 6043ft 137kts
16-Apr-18 14:43 33.321773 -118.013024 106 6451ft 140kts
16-Apr-18 14:44 33.315644 -117.967178 104 6857ft 139kts
16-Apr-18 14:45 33.309433 -117.920953 105 7213ft 141kts
16-Apr-18 14:46 33.303142 -117.874203 107 7553ft 142kts
16-Apr-18 14:47 33.297046 -117.828448 107 8103ft 124kts
16-Apr-18 14:48 33.291959 -117.790155 111 8775ft 116kts
16-Apr-18 14:49 33.286064 -117.748121 109 8984ft 147kts
16-Apr-18 14:50 33.278505 -117.697929 109 8983ft 156kts
16-Apr-18 14:51 33.270945 -117.647885 109 8983ft 150kts
16-Apr-18 14:52 33.263514 -117.598856 109 8984ft 150kts
16-Apr-18 14:53 33.256827 -117.549477 107 8980ft 150kts
16-Apr-18 14:54 33.248782 -117.501076 121 8977ft 144kts
16-Apr-18 14:55 33.235673 -117.455925 121 8974ft 144kts
16-Apr-18 14:56 33.222256 -117.410701 133 8967ft 138kts
16-Apr-18 14:57 33.194696 -117.396524 182 8969ft 106kts
16-Apr-18 14:58 33.166189 -117.386323 179 8969ft 109kts
16-Apr-18 14:59 33.137407 -117.373149 176 8968ft 112kts
16-Apr-18 15:00 33.108502 -117.357581 172 8967ft 115kts
16-Apr-18 15:01 33.080128 -117.347652 187 8959ft 104kts
16-Apr-18 15:02 33.051606 -117.337821 180 8959ft 109kts
16-Apr-18 15:03 33.022707 -117.325913 179 8960ft 110kts
16-Apr-18 15:04 32.992831 -117.313505 178 8440ft 117kts
16-Apr-18 15:05 32.961659 -117.300497 173 7424ft 123kts
16-Apr-18 15:06 32.929273 -117.286904 172 6411ft 125kts
16-Apr-18 15:07 32.896374 -117.273147 170 5293ft 128kts
16-Apr-18 15:08 32.866610 -117.260549 172 4967ft 101kts
16-Apr-18 15:09 32.840798 -117.249800 172 4971ft 104kts
16-Apr-18 15:10 32.811727 -117.237664 171 4970ft 116kts
16-Apr-18 15:11 32.787258 -117.214582 102 4968ft 132kts
16-Apr-18 15:12 32.780933 -117.171598 100 4972ft 132kts
16-Apr-18 15:13 32.774908 -117.128338 101 4975ft 132kts
16-Apr-18 15:14 32.768329 -117.085150 107 4971ft 133kts
16-Apr-18 15:15 32.760245 -117.043872 107 4972ft 125kts
16-Apr-18 15:16 32.752474 -117.004082 107 4974ft 123kts
16-Apr-18 15:17 32.741252 -116.965718 121 4669ft 127kts
16-Apr-18 15:18 32.725266 -116.927739 122 3980ft 121kts
16-Apr-18 15:19 32.712844 -116.896353 120 3973ft 102kts
16-Apr-18 15:20 32.694765 -116.884631 239 3968ft 78kts
16-Apr-18 15:21 32.685794 -116.908876 250 3968ft 81kts
16-Apr-18 15:22 32.676895 -116.933876 250 3977ft 83kts
16-Apr-18 15:23 32.677082 -116.956847 280 3980ft 67kts
16-Apr-18 15:24 32.682324 -116.979623 282 3979ft 73kts
16-Apr-18 15:25 32.688784 -117.005896 284 3163ft 87kts
16-Apr-18 15:26 32.694952 -117.030973 284 2522ft 62kts
16-Apr-18 15:27 32.699763 -117.050697 286 2040ft 57kts
16-Apr-18 15:28 32.703091 -117.065061 283 1986ft 38kts
16-Apr-18 15:29 32.706259 -117.078569 287 1978ft 37kts
16-Apr-18 15:30 32.709616 -117.091995 285 1647ft 47kts
16-Apr-18 15:31 32.712707 -117.104527 283 1413ft 37kts
16-Apr-18 15:32 32.715652 -117.116700 284 1209ft 37kts
16-Apr-18 15:33 32.718560 -117.128573 285 970ft 37kts
16-Apr-18 15:34 32.721547 -117.140853 285 867ft 41kts
16-Apr-18 15:35 32.724762 -117.153768 287 634ft 36kts
16-Apr-18 15:36 32.727580 -117.165240 287 407ft 34kts
16-Apr-18 15:37 32.730435 -117.176914 287 113ft 37kts
16-Apr-18 15:38 32.732543 -117.181848 3 21ft 2kts
16-Apr-18 15:39 32.734567 -117.184037 5 21ft 11kts
16-Apr-18 15:40 32.735278 -117.183465 52 21ft 0kts
16-Apr-18 15:41 32.735279 -117.183465 52 21ft 0kts

Navigation Log

Ident Type
1. KAVX Airport
2. SXC Navaid
3. AVOLS Fix
4. PACIF Fix
5. HUBRD Fix
6. OCN Navaid
7. HURSI Fix
8. CARIF Fix
9. MZB Navaid
10. KSAN Airport